Flight Track Log - Related Links

Times and Time Zones

All times are in EST time to prevent confusion due to time zone crossing. See the BOE501 flight status page for this flight to view local times or setup timezone preferences in your user account.

Time Position Orientation Groundspeed Altitude Reporting Facility
EST Latitude Longitude Course Direction KTS MPH feet Rate Location/Type
Thu 05:55:54 PM 47.8892 -122.2861 176° South 154 177 1,200  Level Seattle Center
Thu 05:56:38 PM 47.8622 -122.2831 176° South 139 160 2,400 1,200 Climbing Seattle Center
Thu 05:57:39 PM 47.8133 -122.2953 190° South 190 219 3,300 2,213 Climbing Seattle Center
Thu 05:58:40 PM 47.8069 -122.3864 264° West 257 296 6,900 3,836 Climbing Seattle Center
Thu 05:59:41 PM 47.8292 -122.4833 289° West 254 292 11,100 3,443 Climbing Seattle Center
Thu 06:00:42 PM 47.8553 -122.5953 289° West 290 334 13,900 2,459 Climbing Seattle Center
Thu 06:01:43 PM 47.8828 -122.7175 289° West 315 362 16,100 2,066 Climbing Seattle Center
Thu 06:02:44 PM 47.9183 -122.8708 289° West 333 383 18,100 1,869 Climbing Seattle Center
Thu 06:03:45 PM 47.9481 -123.0031 289° West 339 390 19,900 934 Climbing Seattle Center
Thu 06:04:46 PM 47.9781 -123.1378 288° West 345 397 20,000 49 Climbing Seattle Center
Thu 06:05:47 PM 48.0072 -123.2703 288° West 341 392 20,000  Level Seattle Center
Thu 06:06:48 PM 48.0386 -123.4069 289° West 350 403 20,000 -98 Level Seattle Center
Thu 06:07:49 PM 48.0653 -123.5561 285° West 347 399 19,800 -1,131 Descending Seattle Center
Thu 06:08:50 PM 47.9919 -123.6525 221° Southwest 365 420 17,700 -1,525 Descending Seattle Center
Thu 06:09:51 PM 47.9117 -123.5953 154° Southeast 386 444 16,700 -1,525 Descending Seattle Center
Thu 06:10:52 PM 47.9292 -123.4322 81° East 342 394 14,600 -1,967 Descending Seattle Center
Thu 06:11:53 PM 47.9800 -123.3153 57° Northeast 337 388 12,700 -2,164 Descending Seattle Center
Thu 06:12:54 PM 48.0314 -123.1944 58° Northeast 346 398 10,200 -1,660 Descending Seattle Center
Thu 06:13:27 PM 48.0597 -123.1275 58° Northeast 341 392 10,100 -200 Descending Seattle Center
Thu 06:13:54 PM 48.0794 -123.0814 57° Northeast 329 379 10,000 -658 Descending Seattle Center
Thu 06:14:40 PM 48.1142 -123.0006 57° Northeast 294 338 9,300 -885 Descending Seattle Center
Thu 06:14:55 PM 48.1222 -122.9825 56° Northeast 291 335 9,100 -904 Descending Seattle Center
Thu 06:15:53 PM 48.1397 -122.8728 77° East 294 338 8,200 -966 Descending Seattle Center
Thu 06:16:53 PM 48.1433 -122.7444 88° East 290 334 7,200 -950 Descending Seattle Center
Thu 06:17:53 PM 48.1447 -122.6244 89° East 285 328 6,300 -939 Descending Seattle Center
Thu 06:18:48 PM 48.1469 -122.5169 88° East 283 326 5,400 -776 Descending Seattle Center
Thu 06:19:49 PM 48.1497 -122.4028 88° East 270 311 4,800 -639 Descending Seattle Center
Thu 06:20:50 PM 48.1356 -122.3108 103° East 224 258 4,100 -645 Descending Seattle Center
Thu 06:21:50 PM 48.0836 -122.2903 165° South 186 214 3,500 -567 Descending Seattle Center
Thu 06:22:57 PM 48.0303 -122.2900 180° South 159 183 2,900 -703 Descending Seattle Center
Thu 06:23:58 PM 47.9900 -122.2894 179° South 142 163 2,000 -836 Descending Seattle Center
Thu 06:24:59 PM 47.9500 -122.2886 179° South 144 166 1,200 -563 Descending Seattle Center
Thu 06:26:06 PM 47.9050 -122.2842 176° South 145 167 800 -358 Descending Seattle Center

Login

Don't have an account? Register now (free) for customized features, flight alerts, and more!